Terminal Aerodrome Forecast
Issued by NWS

Home | Current Version | Previous Version | Text Only | Print | Product List | Glossary On
Versions: 1 2 3 4 5 6 7 8 9 10 11 12 13 14 15 16 17 18 19 20 21
779
FTUS46 KSEW 281126
TAFBLI
TAF
KBLI 281126Z 2812/2912 15018G28KT P6SM VCSH OVC022
      TEMPO 2812/2815 -RA
     FM281500 15013G23KT 6SM -RA BR SCT009 OVC020
     FM281900 15020G30KT P6SM -RA BKN028 OVC050
     FM290300 15013G22KT 5SM -RA BR OVC022
     FM290900 12013KT 5SM -RA BR SCT007 OVC018=

USA.gov is the U.S. government's official web portal to all federal, state and local government web resources and services.